Time;durP1;ratioP1;P1;durP2;ratioP2;P2;SDS_P1;SDS_P2;PMS_P1;PMS_P2;Temp;Humidity;BMP_temperature;BMP_pressure;BME280_temperature;BME280_humidity;BME280_pressure;Samples;Min_cycle;Max_cycle;Signal;HPM_P1;HPM_P2
2023/06/06 00:01:18;;;;;;;15.82;10.52;;;10.70;99.90;;;;;;5014864;28;20042;-72
2023/06/06 00:03:45;;;;;;;15.77;10.40;;;10.70;99.90;;;;;;5014806;28;20111;-72
2023/06/06 00:06:14;;;;;;;17.83;10.50;;;10.70;99.90;;;;;;4998652;28;20046;-72
2023/06/06 00:08:43;;;;;;;16.35;9.77;;;10.70;99.90;;;;;;5014843;28;20050;-72
2023/06/06 00:11:09;;;;;;;14.82;8.98;;;10.70;99.90;;;;;;4998586;28;20128;-72
2023/06/06 00:13:35;;;;;;;15.13;9.90;;;10.70;99.90;;;;;;5014637;28;20116;-72
2023/06/06 00:16:02;;;;;;;16.20;10.45;;;10.80;99.90;;;;;;4998331;28;20074;-72
2023/06/06 00:18:28;;;;;;;19.73;10.55;;;10.80;99.90;;;;;;5014748;28;20034;-72
2023/06/06 00:20:54;;;;;;;14.50;9.75;;;10.70;99.90;;;;;;5015905;28;20044;-72
2023/06/06 00:23:24;;;;;;;14.57;9.95;;;10.70;99.90;;;;;;4998091;28;20038;-72
2023/06/06 00:25:53;;;;;;;15.38;10.15;;;10.70;99.90;;;;;;5014396;28;20038;-72
2023/06/06 00:28:20;;;;;;;19.15;11.70;;;10.70;99.90;;;;;;5014096;28;20058;-72
2023/06/06 00:30:46;;;;;;;13.38;9.45;;;10.70;99.90;;;;;;4996997;28;20092;-73
2023/06/06 00:33:11;;;;;;;17.17;10.38;;;10.70;99.90;;;;;;4998333;28;20533;-72
2023/06/06 00:35:37;;;;;;;18.20;10.60;;;10.70;99.90;;;;;;5014229;28;20088;-72
2023/06/06 00:38:03;;;;;;;17.30;10.40;;;10.70;99.90;;;;;;5014174;28;20050;-72
2023/06/06 00:40:29;;;;;;;15.13;9.95;;;10.70;99.90;;;;;;4997794;28;20052;-72
2023/06/06 00:42:55;;;;;;;15.43;9.63;;;10.60;99.90;;;;;;4997955;28;20081;-72
2023/06/06 00:45:21;;;;;;;15.43;10.00;;;10.60;99.90;;;;;;5014105;28;20048;-72
2023/06/06 00:47:47;;;;;;;16.38;9.13;;;10.70;99.90;;;;;;5013858;28;20085;-72
2023/06/06 00:50:14;;;;;;;16.13;10.23;;;10.70;99.90;;;;;;4997932;28;20038;-72
2023/06/06 00:52:46;;;;;;;15.70;9.65;;;10.60;99.90;;;;;;4997743;28;20038;-72
2023/06/06 00:55:14;;;;;;;18.02;9.68;;;10.60;99.90;;;;;;4997745;28;20508;-72
2023/06/06 00:57:43;;;;;;;16.67;9.70;;;10.60;99.90;;;;;;5014170;28;20490;-72
2023/06/06 01:00:10;;;;;;;15.63;10.25;;;10.60;99.90;;;;;;5014083;28;20552;-72
2023/06/06 01:02:39;;;;;;;16.58;10.13;;;10.60;99.90;;;;;;4997680;28;20386;-72
2023/06/06 01:05:08;;;;;;;15.95;9.88;;;10.50;99.90;;;;;;5013926;28;20045;-72
2023/06/06 01:07:35;;;;;;;16.00;10.30;;;10.50;99.90;;;;;;5013825;28;20394;-72
2023/06/06 01:10:03;;;;;;;14.93;9.95;;;10.50;99.90;;;;;;5013555;28;20038;-72
2023/06/06 01:12:35;;;;;;;16.98;10.13;;;10.50;99.90;;;;;;5013593;28;20046;-72
2023/06/06 01:15:18;;;;;;;14.57;10.07;;;10.40;99.90;;;;;;5013413;28;20049;-73
2023/06/06 01:17:46;;;;;;;16.60;10.30;;;10.40;99.90;;;;;;5013416;28;20048;-72
2023/06/06 01:20:12;;;;;;;15.60;9.98;;;10.40;99.90;;;;;;5013616;28;20500;-72
2023/06/06 01:22:38;;;;;;;16.17;10.10;;;10.40;99.90;;;;;;5013275;28;20100;-73
2023/06/06 01:25:06;;;;;;;16.45;11.13;;;10.30;99.90;;;;;;5013345;28;20038;-72
2023/06/06 01:27:33;;;;;;;17.30;10.95;;;10.30;99.90;;;;;;5013110;28;20062;-72
2023/06/06 01:30:01;;;;;;;15.25;10.90;;;10.30;99.90;;;;;;4980875;28;20101;-72
2023/06/06 01:32:39;;;;;;;15.68;10.68;;;10.20;99.90;;;;;;5013378;28;20560;-72
2023/06/06 01:35:23;;;;;;;15.05;10.00;;;10.30;99.90;;;;;;5013070;28;20104;-72
2023/06/06 01:38:11;;;;;;;17.35;10.60;;;10.30;99.90;;;;;;5013348;28;20520;-72
2023/06/06 01:40:39;;;;;;;16.88;10.48;;;10.30;99.90;;;;;;4996598;28;20045;-72
2023/06/06 01:43:08;;;;;;;15.02;10.18;;;10.30;99.90;;;;;;5012805;28;20092;-72
2023/06/06 01:45:35;;;;;;;18.58;11.35;;;10.30;99.90;;;;;;5012947;28;20058;-72
2023/06/06 01:48:02;;;;;;;15.55;10.68;;;10.40;99.90;;;;;;4996918;28;20072;-72
2023/06/06 01:50:28;;;;;;;15.68;10.75;;;10.30;99.90;;;;;;5012856;28;20033;-72
2023/06/06 01:52:55;;;;;;;18.73;11.30;;;10.30;99.90;;;;;;5012829;28;20077;-72
2023/06/06 01:55:21;;;;;;;18.60;11.15;;;10.20;99.90;;;;;;4996473;28;20100;-72
2023/06/06 01:57:47;;;;;;;19.40;11.07;;;10.20;99.90;;;;;;5013066;28;20069;-72
2023/06/06 02:00:13;;;;;;;16.05;11.05;;;10.10;99.90;;;;;;5012928;28;20038;-72
2023/06/06 02:02:40;;;;;;;16.42;11.15;;;10.10;99.90;;;;;;5012667;28;20037;-72
2023/06/06 02:05:06;;;;;;;16.95;11.43;;;10.10;99.90;;;;;;5012894;28;20042;-72
2023/06/06 02:07:34;;;;;;;14.77;10.82;;;10.10;99.90;;;;;;5012535;28;20054;-72
2023/06/06 02:10:04;;;;;;;20.63;12.40;;;10.00;99.90;;;;;;4996455;28;20092;-72
2023/06/06 02:12:31;;;;;;;19.63;13.15;;;10.10;99.90;;;;;;4996506;28;20037;-72
2023/06/06 02:14:58;;;;;;;19.65;13.73;;;10.00;99.90;;;;;;5012430;28;20090;-72
2023/06/06 02:17:23;;;;;;;21.23;14.32;;;10.00;99.90;;;;;;5012386;28;20038;-72
2023/06/06 02:19:49;;;;;;;25.13;15.68;;;10.00;99.90;;;;;;5012387;28;20100;-72
2023/06/06 02:22:15;;;;;;;23.35;16.10;;;10.00;99.90;;;;;;5012294;28;20191;-72
2023/06/06 02:24:42;;;;;;;22.02;16.67;;;9.90;99.90;;;;;;4996198;28;20529;-72
2023/06/06 02:27:09;;;;;;;25.17;17.60;;;9.90;99.90;;;;;;5012152;28;20057;-72
2023/06/06 02:29:36;;;;;;;25.55;17.90;;;10.00;99.90;;;;;;4995965;28;20161;-72
2023/06/06 02:32:05;;;;;;;24.70;15.55;;;9.90;99.90;;;;;;5012424;28;20401;-72
2023/06/06 02:34:31;;;;;;;24.52;17.65;;;9.90;99.90;;;;;;5012199;28;20497;-72
2023/06/06 02:36:57;;;;;;;25.45;18.50;;;9.90;99.90;;;;;;5012194;28;20128;-72
2023/06/06 02:39:23;;;;;;;22.77;17.00;;;9.90;99.90;;;;;;5012386;28;20038;-72
2023/06/06 02:41:52;;;;;;;24.25;18.50;;;9.80;99.90;;;;;;4995699;28;20049;-72
2023/06/06 02:44:19;;;;;;;26.90;18.63;;;9.80;99.90;;;;;;4995726;28;20037;-72
2023/06/06 02:46:45;;;;;;;23.33;18.13;;;9.80;99.90;;;;;;4995976;28;20042;-72
2023/06/06 02:49:11;;;;;;;27.80;19.90;;;9.90;99.90;;;;;;4995757;28;20042;-72
2023/06/06 02:51:37;;;;;;;26.65;19.33;;;9.80;99.90;;;;;;5012205;28;20052;-72
2023/06/06 02:54:03;;;;;;;25.00;19.83;;;9.80;99.90;;;;;;5011611;28;20046;-72
2023/06/06 02:56:29;;;;;;;28.15;19.38;;;9.80;99.90;;;;;;5011977;28;20104;-72
2023/06/06 02:58:55;;;;;;;27.40;20.10;;;9.80;99.90;;;;;;4995886;28;20527;-72
2023/06/06 03:01:21;;;;;;;26.60;19.60;;;9.80;99.90;;;;;;4995411;28;20053;-72
2023/06/06 03:03:47;;;;;;;27.00;19.33;;;9.70;99.90;;;;;;4995203;28;20054;-72
2023/06/06 03:06:15;;;;;;;27.88;20.00;;;9.70;99.90;;;;;;5011883;28;20125;-72
2023/06/06 03:08:42;;;;;;;25.50;18.95;;;9.70;99.90;;;;;;5011853;28;20403;-72
2023/06/06 03:11:08;;;;;;;26.15;19.27;;;9.70;99.90;;;;;;5012077;28;20037;-72
2023/06/06 03:13:34;;;;;;;27.58;18.50;;;9.70;99.90;;;;;;4995432;28;20512;-72
2023/06/06 03:16:00;;;;;;;26.05;17.60;;;9.70;99.90;;;;;;5011714;28;20042;-71
2023/06/06 03:18:26;;;;;;;23.88;17.58;;;9.70;99.90;;;;;;5011717;28;20045;-71
2023/06/06 03:20:51;;;;;;;23.92;17.10;;;9.70;99.90;;;;;;4995598;28;20112;-71
2023/06/06 03:23:18;;;;;;;23.50;16.70;;;9.60;99.90;;;;;;5012857;28;20090;-71
2023/06/06 03:25:45;;;;;;;25.00;16.25;;;9.70;99.90;;;;;;5011670;28;20038;-71
2023/06/06 03:28:12;;;;;;;24.58;15.75;;;9.70;99.90;;;;;;4995301;28;20064;-71
2023/06/06 03:30:39;;;;;;;25.30;15.35;;;9.70;99.90;;;;;;4995539;28;20128;-72
2023/06/06 03:33:07;;;;;;;22.23;14.90;;;9.70;99.90;;;;;;5011793;28;20483;-72
2023/06/06 03:35:34;;;;;;;25.35;14.98;;;9.70;99.90;;;;;;5011533;28;20158;-71
2023/06/06 03:38:01;;;;;;;24.15;14.63;;;9.80;99.90;;;;;;5011773;28;20052;-72
2023/06/06 03:40:27;;;;;;;26.05;15.00;;;9.80;99.90;;;;;;5011833;28;20038;-72
2023/06/06 03:42:53;;;;;;;23.48;14.85;;;9.80;99.90;;;;;;4995226;28;20100;-72
2023/06/06 03:45:22;;;;;;;23.10;14.07;;;9.80;99.90;;;;;;5011654;28;20034;-72
2023/06/06 03:47:49;;;;;;;20.85;14.35;;;9.80;99.90;;;;;;5011611;28;20042;-72
2023/06/06 03:50:15;;;;;;;24.52;14.88;;;9.80;99.90;;;;;;5011677;28;20042;-72
2023/06/06 03:52:42;;;;;;;22.10;15.02;;;9.80;99.90;;;;;;5011584;28;20045;-72
2023/06/06 03:55:09;;;;;;;25.67;15.27;;;9.90;99.90;;;;;;5011387;28;20046;-72
2023/06/06 03:57:37;;;;;;;25.17;16.58;;;9.90;99.90;;;;;;5011596;28;20048;-72
2023/06/06 04:00:10;;;;;;;24.48;15.40;;;9.90;99.90;;;;;;5011329;28;20050;-72
2023/06/06 04:02:37;;;;;;;24.08;15.48;;;9.90;99.90;;;;;;5011355;28;20068;-72
2023/06/06 04:05:05;;;;;;;24.10;15.20;;;10.00;99.90;;;;;;5011369;28;20050;-72
2023/06/06 04:07:31;;;;;;;21.70;14.75;;;10.00;99.90;;;;;;5014166;28;20057;-72
2023/06/06 04:09:58;;;;;;;27.83;15.88;;;10.00;99.90;;;;;;5014660;28;20042;-72
2023/06/06 04:12:24;;;;;;;24.98;15.57;;;10.00;99.90;;;;;;5014519;28;20045;-72
2023/06/06 04:14:50;;;;;;;25.73;15.57;;;10.10;99.90;;;;;;5014775;28;20110;-72
2023/06/06 04:17:17;;;;;;;22.83;15.02;;;10.10;99.90;;;;;;5014922;28;20129;-72
2023/06/06 04:19:43;;;;;;;27.58;15.40;;;10.20;99.90;;;;;;5014537;28;20053;-72
2023/06/06 04:22:09;;;;;;;23.85;14.70;;;10.20;99.90;;;;;;5014357;28;20041;-72
2023/06/06 04:24:35;;;;;;;21.70;14.52;;;10.20;99.90;;;;;;5015814;28;20077;-72
2023/06/06 04:27:03;;;;;;;24.17;14.68;;;10.30;99.90;;;;;;4998214;28;20112;-72
2023/06/06 04:29:33;;;;;;;20.75;13.95;;;10.40;99.90;;;;;;4998331;28;20052;-72
2023/06/06 04:32:03;;;;;;;22.15;14.68;;;10.40;99.90;;;;;;5014746;28;20049;-72
2023/06/06 04:34:35;;;;;;;23.30;14.18;;;10.50;99.90;;;;;;5014574;28;20034;-72
2023/06/06 04:37:04;;;;;;;24.65;14.23;;;10.50;99.90;;;;;;5014547;28;20401;-72
2023/06/06 04:39:34;;;;;;;22.45;14.18;;;10.60;99.90;;;;;;5014264;28;20080;-72
2023/06/06 04:42:02;;;;;;;22.50;14.00;;;10.60;99.90;;;;;;5014482;28;20577;-72
2023/06/06 04:44:28;;;;;;;18.10;12.73;;;10.70;99.90;;;;;;4981770;28;20096;-72
2023/06/06 04:47:01;;;;;;;23.95;14.15;;;10.70;99.90;;;;;;5014024;28;20129;-72
2023/06/06 04:49:27;;;;;;;23.50;13.32;;;10.80;99.90;;;;;;4997618;28;20046;-72
2023/06/06 04:51:56;;;;;;;23.45;12.23;;;10.90;99.90;;;;;;5013934;28;20044;-72
2023/06/06 04:54:23;;;;;;;22.58;12.68;;;11.00;99.90;;;;;;5013943;28;20038;-72
2023/06/06 04:56:52;;;;;;;19.10;11.20;;;11.10;99.90;;;;;;5014122;28;20508;-72
2023/06/06 04:59:22;;;;;;;19.95;10.93;;;11.40;99.90;;;;;;4997774;28;20077;-72
2023/06/06 05:01:48;;;;;;;17.98;10.52;;;11.80;99.90;;;;;;5013796;28;20125;-73
2023/06/06 05:04:17;;;;;;;21.10;10.40;;;11.90;99.90;;;;;;5013661;28;20082;-72
2023/06/06 05:06:44;;;;;;;16.98;9.30;;;12.10;99.90;;;;;;5013902;28;20038;-72
2023/06/06 05:09:10;;;;;;;16.25;8.55;;;12.20;99.90;;;;;;5013743;28;20038;-72
2023/06/06 05:11:36;;;;;;;16.52;8.93;;;12.40;99.90;;;;;;5013891;28;20048;-72
2023/06/06 05:14:02;;;;;;;15.45;8.10;;;12.50;99.90;;;;;;5013574;28;20099;-72
2023/06/06 05:16:29;;;;;;;14.30;7.47;;;12.90;99.90;;;;;;5013284;28;20034;-72
2023/06/06 05:18:57;;;;;;;13.40;7.63;;;13.30;99.90;;;;;;5013622;28;20038;-72
2023/06/06 05:21:23;;;;;;;13.98;7.97;;;13.60;99.90;;;;;;5013254;28;20038;-72
2023/06/06 05:23:49;;;;;;;14.50;7.20;;;14.00;99.90;;;;;;5013688;28;20045;-72
2023/06/06 05:26:15;;;;;;;14.35;7.20;;;14.30;99.90;;;;;;4997044;28;20042;-72
2023/06/06 05:28:40;;;;;;;13.73;8.13;;;14.70;99.90;;;;;;4980702;28;20566;-72
2023/06/06 05:31:07;;;;;;;16.52;7.30;;;14.30;99.90;;;;;;5013176;28;20048;-71
2023/06/06 05:33:34;;;;;;;14.40;7.85;;;14.40;99.90;;;;;;5013369;28;20056;-72
2023/06/06 05:36:00;;;;;;;15.30;7.40;;;14.30;99.90;;;;;;5013479;28;20081;-71
2023/06/06 05:38:26;;;;;;;13.60;7.10;;;14.40;99.90;;;;;;4996803;28;20128;-71
2023/06/06 05:40:52;;;;;;;13.13;7.00;;;14.50;99.90;;;;;;5013097;28;20595;-71
2023/06/06 05:43:18;;;;;;;15.82;7.70;;;14.80;99.90;;;;;;5013076;28;20046;-73
2023/06/06 05:45:44;;;;;;;14.70;6.18;;;14.80;99.90;;;;;;5012893;28;20493;-71
2023/06/06 05:48:10;;;;;;;17.95;7.47;;;14.90;99.90;;;;;;5012821;28;20042;-71
2023/06/06 05:50:36;;;;;;;14.18;6.38;;;15.20;99.90;;;;;;5013241;28;20478;-71
2023/06/06 05:53:02;;;;;;;14.15;6.65;;;15.50;99.90;;;;;;4996573;28;20034;-71
2023/06/06 05:55:33;;;;;;;12.57;5.82;;;15.40;99.90;;;;;;4996797;28;20128;-71
2023/06/06 05:58:00;;;;;;;12.55;5.60;;;15.70;99.90;;;;;;5012718;28;20052;-71
2023/06/06 06:00:28;;;;;;;11.65;5.80;;;16.00;99.90;;;;;;5012793;28;20184;-72
2023/06/06 06:02:56;;;;;;;12.80;6.05;;;16.40;99.90;;;;;;5012795;28;20049;-72
2023/06/06 06:05:29;;;;;;;14.70;6.68;;;16.30;99.90;;;;;;4996657;28;20038;-71
2023/06/06 06:07:59;;;;;;;12.88;5.60;;;16.40;99.90;;;;;;5012564;28;20085;-71
2023/06/06 06:10:26;;;;;;;13.70;5.78;;;16.50;99.90;;;;;;4980639;28;20046;-71
2023/06/06 06:12:52;;;;;;;13.13;5.78;;;16.90;99.90;;;;;;5012857;28;20042;-71
2023/06/06 06:15:18;;;;;;;12.45;5.40;;;17.30;99.90;;;;;;5012782;28;20545;-71
2023/06/06 06:17:43;;;;;;;11.95;5.43;;;17.10;99.90;;;;;;5012370;28;20137;-71
2023/06/06 06:20:10;;;;;;;13.20;5.68;;;17.60;99.90;;;;;;5012346;28;20413;-71
2023/06/06 06:22:37;;;;;;;13.80;5.93;;;17.40;99.90;;;;;;5012574;28;20132;-71
2023/06/06 06:25:04;;;;;;;11.80;5.32;;;17.00;99.90;;;;;;5012281;28;20042;-71
2023/06/06 06:27:31;;;;;;;9.10;5.22;;;16.90;99.90;;;;;;5012180;28;20065;-71
2023/06/06 06:29:59;;;;;;;14.60;5.45;;;16.90;99.90;;;;;;4995109;28;20053;-71
2023/06/06 06:32:25;;;;;;;10.52;4.80;;;17.30;99.90;;;;;;5012172;28;20041;-71
2023/06/06 06:34:51;;;;;;;11.13;5.43;;;17.60;99.90;;;;;;4995884;28;20084;-71
2023/06/06 06:37:17;;;;;;;11.38;5.53;;;17.90;99.90;;;;;;4995775;28;20046;-71
2023/06/06 06:39:43;;;;;;;12.98;5.25;;;17.60;99.90;;;;;;4996001;28;20044;-72
2023/06/06 06:42:08;;;;;;;11.35;5.18;;;17.30;99.90;;;;;;5012164;28;20046;-71
2023/06/06 06:44:34;;;;;;;12.85;5.40;;;17.30;99.90;;;;;;4979554;28;20509;-71
2023/06/06 06:47:03;;;;;;;12.15;5.28;;;17.90;99.90;;;;;;5011984;28;20494;-71
2023/06/06 06:49:29;;;;;;;10.30;5.30;;;18.00;99.90;;;;;;5012002;28;20049;-71
2023/06/06 06:51:56;;;;;;;12.93;5.25;;;17.70;99.90;;;;;;4995538;28;20045;-71
2023/06/06 06:54:26;;;;;;;11.00;4.85;;;18.00;99.90;;;;;;5011978;28;20042;-71
2023/06/06 06:56:53;;;;;;;11.25;5.45;;;17.90;99.90;;;;;;5012229;28;20429;-72
2023/06/06 06:59:22;;;;;;;11.07;4.63;;;18.10;99.90;;;;;;5011899;28;20046;-72
2023/06/06 07:01:49;;;;;;;12.32;4.90;;;18.00;99.90;;;;;;5012135;28;20509;-73
2023/06/06 07:04:18;;;;;;;12.63;4.72;;;18.20;99.90;;;;;;5012008;28;20498;-73
2023/06/06 07:06:45;;;;;;;13.77;5.30;;;18.50;99.90;;;;;;5011819;28;20049;-74
2023/06/06 07:09:12;;;;;;;12.63;5.63;;;18.50;99.90;;;;;;5013086;28;20049;-72
2023/06/06 07:11:38;;;;;;;12.15;4.78;;;18.60;99.90;;;;;;5011825;28;20046;-72
2023/06/06 07:14:04;;;;;;;11.50;4.70;;;18.70;99.90;;;;;;4995493;28;20379;-70
2023/06/06 07:16:30;;;;;;;12.43;5.05;;;19.10;99.90;;;;;;4995542;28;20045;-71
2023/06/06 07:18:56;;;;;;;12.52;5.35;;;18.90;99.90;;;;;;5011774;28;20052;-71
2023/06/06 07:21:25;;;;;;;12.77;5.22;;;19.10;99.90;;;;;;4995551;28;20633;-70
2023/06/06 07:23:51;;;;;;;12.32;5.40;;;19.30;99.90;;;;;;4995410;28;20041;-70
2023/06/06 07:26:19;;;;;;;9.73;4.68;;;19.70;99.90;;;;;;5011754;28;20130;-71
2023/06/06 07:28:46;;;;;;;9.50;4.70;;;19.30;99.90;;;;;;5011532;28;20061;-72
2023/06/06 07:31:16;;;;;;;9.75;5.40;;;19.70;99.60;;;;;;5011570;28;20103;-72
2023/06/06 07:33:42;;;;;;;10.43;4.97;;;19.50;99.90;;;;;;5011868;28;20479;-72
2023/06/06 07:36:08;;;;;;;10.35;4.93;;;19.40;99.40;;;;;;5011603;28;20044;-70
2023/06/06 07:38:34;;;;;;;10.43;5.03;;;19.00;99.90;;;;;;4995393;28;20041;-71
2023/06/06 07:41:00;;;;;;;10.32;4.28;;;18.80;99.90;;;;;;4997311;28;20048;-71
2023/06/06 07:43:26;;;;;;;11.95;5.10;;;19.00;99.90;;;;;;5015600;28;20081;-71
2023/06/06 07:45:52;;;;;;;10.38;4.93;;;19.00;99.90;;;;;;5015535;28;20077;-71
2023/06/06 07:48:18;;;;;;;11.05;5.03;;;18.80;99.90;;;;;;4998700;28;20042;-71
2023/06/06 07:50:44;;;;;;;11.23;4.97;;;18.80;99.90;;;;;;5015214;28;20041;-71
2023/06/06 07:53:13;;;;;;;11.57;5.13;;;18.70;99.90;;;;;;5015064;28;20045;-71
2023/06/06 07:55:40;;;;;;;9.70;5.20;;;18.80;99.90;;;;;;5015032;28;20046;-71
2023/06/06 07:58:15;;;;;;;12.25;5.43;;;18.80;99.90;;;;;;5015039;28;20116;-71
2023/06/06 08:00:42;;;;;;;10.63;5.97;;;18.80;99.90;;;;;;5014939;28;20038;-71
2023/06/06 08:03:09;;;;;;;10.35;5.63;;;18.70;99.90;;;;;;5014961;28;20046;-71
2023/06/06 08:05:36;;;;;;;11.68;6.57;;;18.60;99.90;;;;;;5015101;28;20038;-73
2023/06/06 08:08:02;;;;;;;11.38;6.85;;;18.80;99.90;;;;;;4998933;28;20222;-72
2023/06/06 08:10:28;;;;;;;16.02;7.57;;;19.20;99.90;;;;;;5015145;28;20088;-71
2023/06/06 08:12:54;;;;;;;12.40;6.50;;;19.40;99.90;;;;;;4998776;28;20073;-72
2023/06/06 08:15:20;;;;;;;12.38;6.22;;;19.90;99.90;;;;;;5015023;28;20045;-71
2023/06/06 08:17:45;;;;;;;14.98;7.43;;;20.20;99.90;;;;;;5014616;28;20092;-71
2023/06/06 08:20:11;;;;;;;14.90;7.63;;;20.00;98.70;;;;;;5014596;28;20526;-72
2023/06/06 08:22:38;;;;;;;12.13;7.00;;;19.70;99.70;;;;;;5014435;28;20053;-71
2023/06/06 08:25:07;;;;;;;12.63;7.38;;;19.80;99.90;;;;;;5014629;28;20104;-72
2023/06/06 08:27:34;;;;;;;13.18;6.60;;;19.60;99.90;;;;;;5014534;28;20062;-71
2023/06/06 08:30:00;;;;;;;13.13;7.18;;;19.70;99.90;;;;;;4998088;28;20139;-71
2023/06/06 08:32:27;;;;;;;10.82;5.78;;;19.90;99.90;;;;;;5014333;28;20042;-72
2023/06/06 08:34:54;;;;;;;10.23;6.28;;;20.20;99.90;;;;;;5014403;28;20048;-71
2023/06/06 08:37:19;;;;;;;12.48;6.15;;;20.60;98.90;;;;;;4998472;28;20446;-72
2023/06/06 08:39:47;;;;;;;11.32;5.90;;;20.80;98.90;;;;;;5014478;28;20042;-71
2023/06/06 08:42:17;;;;;;;9.57;5.03;;;21.00;98.50;;;;;;5014474;28;20051;-72
2023/06/06 08:44:43;;;;;;;11.75;5.10;;;21.00;96.50;;;;;;5014150;28;20053;-71
2023/06/06 08:47:13;;;;;;;9.35;5.10;;;20.70;97.30;;;;;;5014374;28;20042;-71
2023/06/06 08:49:39;;;;;;;10.10;5.10;;;20.50;98.40;;;;;;5014023;28;20045;-71
2023/06/06 08:52:06;;;;;;;10.07;4.90;;;20.30;97.70;;;;;;5013421;28;20042;-71
2023/06/06 08:54:32;;;;;;;11.23;5.25;;;20.70;98.70;;;;;;5013968;28;20095;-71
2023/06/06 08:57:07;;;;;;;11.48;5.60;;;20.60;98.00;;;;;;5013927;28;20077;-71
2023/06/06 08:59:39;;;;;;;9.00;4.60;;;20.40;97.90;;;;;;4997599;28;20050;-71
2023/06/06 09:02:06;;;;;;;9.57;5.13;;;20.70;98.80;;;;;;5013855;28;20046;-71
2023/06/06 09:04:35;;;;;;;13.55;5.90;;;21.00;98.30;;;;;;4997481;28;20042;-71
2023/06/06 09:07:13;;;;;;;10.20;5.93;;;21.20;98.20;;;;;;4997507;28;20045;-71
2023/06/06 09:09:40;;;;;;;9.85;5.70;;;21.20;96.40;;;;;;4997399;28;20048;-71
2023/06/06 09:12:09;;;;;;;11.52;6.05;;;21.00;97.30;;;;;;5014859;28;20048;-71
2023/06/06 09:14:35;;;;;;;9.63;5.97;;;21.00;97.10;;;;;;5013834;28;20433;-71
2023/06/06 09:17:03;;;;;;;10.52;5.53;;;20.90;98.00;;;;;;4997257;28;20045;-71
2023/06/06 09:19:30;;;;;;;10.23;5.30;;;20.80;98.40;;;;;;5013790;28;20534;-71
2023/06/06 09:22:00;;;;;;;9.95;4.78;;;21.20;97.20;;;;;;4997472;28;20056;-71
2023/06/06 09:24:28;;;;;;;10.85;5.00;;;21.20;97.20;;;;;;5013437;28;20053;-71
2023/06/06 09:26:54;;;;;;;13.48;5.38;;;21.10;96.50;;;;;;4996819;28;20120;-71
2023/06/06 09:29:20;;;;;;;10.00;5.40;;;21.10;96.00;;;;;;4997084;28;20046;-72
2023/06/06 09:31:48;;;;;;;12.23;5.40;;;20.70;96.30;;;;;;4997087;28;20045;-71
2023/06/06 09:34:14;;;;;;;11.48;5.60;;;20.70;97.50;;;;;;4997227;28;20121;-71
2023/06/06 09:36:44;;;;;;;10.50;5.50;;;20.90;98.40;;;;;;5013206;28;20129;-71
2023/06/06 09:39:14;;;;;;;9.88;5.22;;;21.10;98.40;;;;;;4996852;28;20080;-71
2023/06/06 09:41:47;;;;;;;11.05;5.00;;;21.20;98.20;;;;;;5013040;28;20096;-71
2023/06/06 09:44:28;;;;;;;12.65;5.65;;;21.70;97.40;;;;;;5013057;28;20080;-71
2023/06/06 09:47:02;;;;;;;10.40;5.43;;;21.70;94.60;;;;;;5013312;28;20041;-71
2023/06/06 09:49:36;;;;;;;11.00;5.40;;;21.40;95.00;;;;;;5013003;28;20133;-71
2023/06/06 09:52:05;;;;;;;10.00;5.43;;;21.50;95.80;;;;;;5012949;28;20128;-71
2023/06/06 09:54:32;;;;;;;11.70;5.57;;;21.40;95.50;;;;;;5012876;28;20037;-71
2023/06/06 09:56:58;;;;;;;9.50;5.55;;;21.50;95.90;;;;;;5013187;28;20087;-71
2023/06/06 09:59:25;;;;;;;12.05;5.95;;;21.40;96.10;;;;;;4996423;28;20125;-71
2023/06/06 10:01:59;;;;;;;11.23;5.57;;;21.70;95.90;;;;;;5013063;28;20494;-71
2023/06/06 10:04:26;;;;;;;12.25;5.70;;;21.60;96.10;;;;;;5012933;28;20046;-71
2023/06/06 10:06:53;;;;;;;10.57;5.70;;;21.70;96.40;;;;;;5012961;28;20048;-71
2023/06/06 10:09:21;;;;;;;10.27;5.43;;;21.80;95.60;;;;;;4996323;28;20042;-71
2023/06/06 10:11:47;;;;;;;11.00;5.35;;;22.10;93.50;;;;;;5012535;28;20121;-71
2023/06/06 10:14:15;;;;;;;12.50;5.60;;;22.10;93.90;;;;;;5012790;28;20124;-71
2023/06/06 10:16:41;;;;;;;11.35;5.90;;;22.20;94.10;;;;;;4996770;28;20490;-71
2023/06/06 10:19:11;;;;;;;11.70;5.80;;;22.00;93.30;;;;;;4996439;28;20038;-71
2023/06/06 10:21:38;;;;;;;11.98;5.05;;;22.10;94.10;;;;;;5012352;28;20052;-71
2023/06/06 10:24:04;;;;;;;10.10;5.35;;;22.40;94.50;;;;;;5012404;28;20052;-71
2023/06/06 10:26:42;;;;;;;12.05;5.50;;;22.30;94.10;;;;;;4995758;28;20052;-71
2023/06/06 10:29:19;;;;;;;24.05;6.22;;;22.40;94.70;;;;;;5012300;28;20054;-71
2023/06/06 10:32:12;;;;;;;10.60;5.13;;;22.50;94.10;;;;;;5012319;28;20044;-71
2023/06/06 10:34:41;;;;;;;21.13;5.80;;;22.40;93.50;;;;;;5012492;28;20034;-71
2023/06/06 10:37:15;;;;;;;9.45;5.03;;;22.60;92.70;;;;;;5012206;28;20096;-70
2023/06/06 10:39:45;;;;;;;10.50;5.55;;;22.60;91.60;;;;;;4995748;28;20048;-70
2023/06/06 10:42:11;;;;;;;46.72;7.28;;;22.60;92.00;;;;;;5012438;28;20513;-71
2023/06/06 10:44:43;;;;;;;11.52;5.22;;;22.70;91.50;;;;;;5012087;28;20041;-71
2023/06/06 10:47:23;;;;;;;10.45;5.43;;;22.80;91.80;;;;;;5012025;28;20041;-72
2023/06/06 10:50:07;;;;;;;12.68;5.35;;;22.90;91.40;;;;;;5012032;28;20564;-71
2023/06/06 10:53:06;;;;;;;9.82;5.60;;;22.90;91.80;;;;;;5012117;28;20042;-70
2023/06/06 10:55:44;;;;;;;11.93;5.85;;;22.70;90.50;;;;;;5011818;28;20052;-71
2023/06/06 10:58:13;;;;;;;20.33;6.20;;;22.40;91.80;;;;;;5012267;28;20554;-68
2023/06/06 11:00:41;;;;;;;8.80;5.13;;;22.40;92.30;;;;;;4995835;28;20038;-73
2023/06/06 11:03:08;;;;;;;10.88;5.15;;;22.50;91.70;;;;;;4979385;28;20034;-69
2023/06/06 11:06:00;;;;;;;10.38;5.07;;;23.00;90.90;;;;;;5012161;28;20487;-70
2023/06/06 11:08:42;;;;;;;13.93;5.95;;;23.10;90.80;;;;;;4998905;28;20556;-70
2023/06/06 11:11:18;;;;;;;11.52;5.50;;;23.10;91.10;;;;;;5011869;28;20038;-71
2023/06/06 11:14:00;;;;;;;10.57;5.35;;;22.80;92.30;;;;;;5011760;28;20092;-70
2023/06/06 11:16:41;;;;;;;11.18;5.20;;;22.70;91.60;;;;;;5014915;28;20046;-70
2023/06/06 11:19:19;;;;;;;8.45;4.40;;;22.50;91.90;;;;;;5015705;28;20065;-71
2023/06/06 11:21:50;;;;;;;12.23;5.90;;;22.70;91.20;;;;;;5015568;28;20049;-71
2023/06/06 11:24:20;;;;;;;16.03;5.20;;;22.90;91.60;;;;;;5015975;28;20108;-71
2023/06/06 11:26:51;;;;;;;11.95;5.43;;;23.00;92.70;;;;;;4999390;28;20116;-71
2023/06/06 11:29:20;;;;;;;23.63;6.40;;;23.00;92.10;;;;;;5015935;28;20525;-71
2023/06/06 11:31:49;;;;;;;11.48;5.78;;;22.90;91.50;;;;;;5015570;28;20041;-71
2023/06/06 11:34:15;;;;;;;19.00;5.75;;;22.80;92.00;;;;;;4999130;28;20406;-71
2023/06/06 11:36:44;;;;;;;11.63;5.50;;;22.90;93.30;;;;;;5015493;28;20139;-71
2023/06/06 11:39:12;;;;;;;14.40;6.07;;;22.90;93.20;;;;;;5015500;28;20042;-71
2023/06/06 11:41:43;;;;;;;12.32;5.50;;;22.70;92.20;;;;;;5015330;28;20099;-71
2023/06/06 11:44:09;;;;;;;12.63;5.35;;;22.70;93.40;;;;;;5015383;28;20124;-71
2023/06/06 11:46:52;;;;;;;13.52;5.53;;;22.70;93.50;;;;;;4998945;28;20050;-71
2023/06/06 11:49:20;;;;;;;10.00;5.30;;;22.60;93.70;;;;;;5015351;28;20034;-71
2023/06/06 11:52:00;;;;;;;10.57;5.70;;;22.60;94.00;;;;;;5015285;28;20096;-71
2023/06/06 11:54:27;;;;;;;11.52;5.57;;;22.70;94.20;;;;;;4983211;28;20077;-71
2023/06/06 11:57:02;;;;;;;12.40;5.90;;;22.80;93.30;;;;;;4999411;28;20104;-71
2023/06/06 11:59:29;;;;;;;11.68;5.80;;;22.60;93.50;;;;;;5015228;28;20045;-71
2023/06/06 12:01:56;;;;;;;11.73;5.70;;;22.60;93.20;;;;;;5014933;28;20049;-71
2023/06/06 12:04:27;;;;;;;12.48;6.18;;;22.60;93.90;;;;;;5014623;28;20046;-71
2023/06/06 12:07:00;;;;;;;11.10;5.32;;;22.70;93.10;;;;;;5014784;28;20345;-71
2023/06/06 12:09:25;;;;;;;11.27;5.57;;;22.60;93.80;;;;;;4998428;28;20046;-71
2023/06/06 12:12:04;;;;;;;11.68;5.68;;;22.60;94.00;;;;;;5015083;28;20104;-71
2023/06/06 12:14:32;;;;;;;10.00;5.88;;;22.70;93.60;;;;;;5015023;28;20046;-71
2023/06/06 12:17:06;;;;;;;11.52;5.80;;;22.80;93.40;;;;;;4998273;28;20041;-71
2023/06/06 12:19:33;;;;;;;12.38;5.75;;;22.80;93.70;;;;;;5015291;28;20081;-71
2023/06/06 12:21:59;;;;;;;10.95;5.88;;;22.90;93.90;;;;;;5014572;28;20050;-71
2023/06/06 12:24:27;;;;;;;13.45;6.25;;;22.90;93.90;;;;;;5015098;28;20129;-70
2023/06/06 12:27:05;;;;;;;13.88;5.75;;;22.80;92.80;;;;;;5013163;28;20101;-70
2023/06/06 12:29:40;;;;;;;10.80;5.88;;;22.80;93.70;;;;;;5014517;28;20077;-71
2023/06/06 12:32:21;;;;;;;12.98;5.60;;;22.80;93.80;;;;;;5014665;28;20177;-71
2023/06/06 12:35:06;;;;;;;12.02;6.07;;;22.80;94.00;;;;;;4998359;28;20490;-71
2023/06/06 12:37:45;;;;;;;10.70;5.55;;;22.70;93.40;;;;;;5014294;28;20171;-71
2023/06/06 12:40:33;;;;;;;11.68;5.90;;;22.70;94.40;;;;;;4997941;28;20053;-71
2023/06/06 12:43:06;;;;;;;16.08;6.20;;;22.60;94.20;;;;;;4998114;28;20510;-71